Latest Weather Observations for Charlton

IDV60801

Issued at 10:32 pm EDT Thursday 23 February 2017 (issued every 30 minutes, with the page automatically refreshed every 10 minutes)

About weather observations | Map of weather stations | Latest weather observations for VIC | Other Formats
Station Details ID: 080128 Name: CHARLTON Lat: -36.28 Lon: 143.33 Height: 131.7 m
Data from the previous 72 hours. | See also: Recent months at Charlton
Date/Time
EDT
Temp
°C
App
Temp
°C
Dew
Point
°C
Rel
Hum
%
Delta-T
°C
Wind Press
QNH
hPa
Press
MSL
hPa
Rain since
9am
mm
Dir  Spd
km/h
Gust
km/h
Spd
kts
Gust
kts
23/10:30pm 20.3 18.7 10.1 52 5.5 SW 9 13 5 7 1020.3 1019.7 0.0
23/10:00pm 20.7 18.9 9.6 49 6.0 SW 9 17 5 9 1020.2 1019.6 0.0
23/09:30pm 21.7 19.6 9.9 47 6.4 WSW 11 19 6 10 1019.9 1019.3 0.0
23/09:00pm 22.5 20.4 9.6 44 7.0 WSW 11 15 6 8 1019.3 1018.7 0.0
23/08:30pm 23.8 21.6 9.4 40 7.9 WSW 11 17 6 9 1018.9 1018.3 0.0
23/08:00pm 25.1 22.9 9.4 37 8.6 WSW 11 20 6 11 1018.5 1017.9 0.0
23/07:30pm 26.3 23.3 9.2 34 9.4 SW 15 24 8 13 1018.0 1017.5 0.0
23/07:00pm 27.6 24.6 9.4 32 10.1 WSW 15 28 8 15 1017.8 1017.3 0.0
23/06:30pm 28.7 26.3 9.9 31 10.6 WSW 13 22 7 12 1017.7 1017.2 0.0
23/06:00pm 28.5 25.2 9.7 31 10.5 WSW 17 28 9 15 1017.6 1017.1 0.0
23/05:30pm 28.9 26.1 10.1 31 10.6 WSW 15 24 8 13 1017.3 1016.8 0.0
23/05:00pm 29.5 26.7 10.1 30 11.0 W 15 22 8 12 1017.3 1016.8 0.0
23/04:30pm 29.1 26.2 9.8 30 10.9 W 15 26 8 14 1017.3 1016.8 0.0
23/04:00pm 28.8 25.8 10.5 32 10.4 W 17 28 9 15 1017.3 1016.8 0.0
23/03:30pm 28.7 26.4 10.4 32 10.4 WSW 13 26 7 14 1017.6 1017.1 0.0
23/03:00pm 28.8 26.5 10.5 32 10.4 WSW 13 24 7 13 1017.9 1017.4 0.0
23/02:30pm 28.3 26.1 10.9 34 10.0 WSW 13 24 7 13 1017.9 1017.4 0.0
23/02:00pm 27.0 24.8 10.7 36 9.2 W 13 26 7 14 1018.0 1017.5 0.0
23/01:30pm 27.6 25.6 11.6 37 9.2 WSW 13 22 7 12 1018.1 1017.6 0.0
23/01:00pm 26.0 23.7 11.7 41 8.2 WSW 15 26 8 14 1018.2 1017.7 0.0
23/12:30pm 25.5 23.9 12.7 45 7.4 SW 13 24 7 13 1018.5 1017.9 0.0
23/12:00pm 24.1 22.7 12.1 47 6.9 SW 11 20 6 11 1018.6 1018.0 0.0
23/11:30am 23.5 21.1 12.5 50 6.3 WSW 17 26 9 14 1018.8 1018.2 0.0
23/11:00am 22.5 20.0 12.4 52 5.8 WSW 17 28 9 15 1018.8 1018.2 0.0
23/10:30am 21.5 18.9 12.1 55 5.3 WSW 17 30 9 16 1018.5 1017.9 0.0
23/10:00am 20.8 18.4 12.8 60 4.6 WSW 17 32 9 17 1018.0 1017.5 0.0
23/09:30am 19.4 17.4 12.7 65 3.8 SW 15 28 8 15 1017.8 1017.3 0.0
23/09:00am 17.5 16.2 12.6 73 2.7 SW 11 19 6 10 1017.7 1017.2 0.0
23/08:30am 16.0 14.9 12.0 77 2.2 WSW 9 19 5 10 1017.3 1016.8 0.0
23/08:00am 14.5 12.9 11.7 83 1.5 WSW 11 17 6 9 1016.9 1016.4 0.0
23/07:30am 13.7 11.9 10.9 83 1.5 W 11 17 6 9 1016.4 1015.9 0.0
23/07:00am 13.1 11.7 9.5 79 1.8 W 7 11 4 6 1015.8 1015.3 0.0
23/06:30am 13.4 11.9 9.3 76 2.1 W 7 9 4 5 1015.5 1014.9 0.0
23/06:00am 13.8 12.3 9.0 73 2.4 W 7 9 4 5 1015.1 1014.5 0.0
23/05:30am 14.2 12.6 8.8 70 2.7 W 7 11 4 6 1014.8 1014.2 0.0
23/05:00am 14.7 13.1 8.9 68 3.0 W 7 11 4 6 1014.5 1013.9 0.0
23/04:30am 15.4 13.5 8.9 65 3.3 WSW 9 13 5 7 1014.3 1013.7 0.0
23/04:00am 16.1 13.9 9.3 64 3.5 WSW 11 17 6 9 1014.1 1013.5 0.0
23/03:30am 16.5 14.6 9.2 62 3.8 WSW 9 17 5 9 1014.0 1013.4 0.0
23/03:00am 17.0 14.7 8.9 59 4.2 WSW 11 22 6 12 1014.0 1013.4 0.0
23/02:30am 17.4 14.7 8.8 57 4.5 WSW 13 20 7 11 1013.9 1013.3 0.0
23/02:00am 18.0 15.3 8.8 55 4.8 WSW 13 20 7 11 1013.9 1013.3 0.0
23/01:30am 18.0 15.5 8.0 52 5.1 WSW 11 19 6 10 1013.7 1013.1 0.0
23/01:00am 18.7 15.7 7.5 48 5.7 WSW 13 20 7 11 1013.5 1012.9 0.0
23/12:30am 19.5 16.7 6.9 44 6.4 WSW 11 17 6 9 1013.4 1012.8 0.0
23/12:00am 20.2 17.2 5.8 39 7.2 WSW 11 19 6 10 1013.0 1012.4 0.0
 
Date/Time
EDT
Temp
°C
App
Temp
°C
Dew
Point
°C
Rel
Hum
%
Delta-T
°C
Wind Press
QNH
hPa
Press
MSL
hPa
Rain since
9am
mm
Dir  Spd
km/h
Gust
km/h
Spd
kts
Gust
kts
22/11:30pm 21.0 17.5 5.4 36 7.8 WSW 13 20 7 11 1012.7 1012.1 0.0
22/11:00pm 22.1 17.6 5.9 35 8.2 WSW 19 32 10 17 1012.6 1012.0 0.0
22/10:30pm 22.9 18.4 7.1 36 8.2 WSW 20 37 11 20 1012.1 1011.5 0.0
22/10:00pm 24.9 21.5 9.2 37 8.6 WSW 17 26 9 14 1011.3 1010.7 0.0
22/09:30pm 26.4 22.5 8.8 33 9.6 WSW 19 32 10 17 1010.3 1009.8 0.0
22/09:00pm 30.5 25.8 -2.1 12 15.2 N 13 20 7 11 1008.5 1007.9 0.0
22/08:30pm 31.1 26.4 -1.6 12 15.4 N 13 24 7 13 1008.3 1007.7 0.0
22/08:00pm 32.1 27.4 -2.0 11 16.1 NNW 13 22 7 12 1008.2 1007.6 0.0
22/07:30pm 33.6 28.1 -2.2 10 17.0 NNW 17 30 9 16 1007.9 1007.3 0.0
22/07:00pm 34.4 26.9 -1.6 10 17.4 NNW 28 44 15 24 1008.0 1007.4 0.0
22/06:30pm 34.9 28.4 -2.6 9 17.8 NNW 22 41 12 22 1008.1 1007.5 0.0
22/06:00pm 34.9 27.8 -1.2 10 17.6 NNW 26 39 14 21 1008.0 1007.4 0.0
22/05:30pm 35.4 29.1 -0.8 10 17.8 NNW 22 35 12 19 1008.3 1007.7 0.0
22/05:00pm 35.3 28.6 -0.9 10 17.8 NNW 24 41 13 22 1008.5 1007.9 0.0
22/04:30pm 34.8 28.5 -1.3 10 17.5 NNW 22 43 12 23 1008.8 1008.2 0.0
22/04:00pm 34.7 28.0 -1.4 10 17.5 NNW 24 39 13 21 1009.3 1008.8 0.0
22/03:30pm 34.7 27.6 -1.4 10 17.5 NNW 26 43 14 23 1009.9 1009.4 0.0
22/03:04pm 34.4 26.9 -1.6 10 17.3 N 28 46 15 25 1010.1 1009.6 0.0
22/03:00pm 33.9 26.7 -2.0 10 17.2 NNW 26 46 14 25 1010.3 1009.8 0.0
22/02:30pm 34.0 26.8 -1.9 10 17.2 NNW 26 41 14 22 1010.9 1010.3 0.0
22/02:21pm 33.9 27.3 -0.7 11 16.9 N 24 50 13 27 1010.9 1010.3 0.0
22/02:00pm 33.2 26.9 -1.2 11 16.6 N 22 39 12 21 1011.0 1010.4 0.0
22/01:30pm 32.2 25.7 0.3 13 15.6 N 24 39 13 21 1011.4 1010.8 0.0
22/01:00pm 31.1 24.5 -0.5 13 15.2 N 24 43 13 23 1012.4 1011.8 0.0
22/12:30pm 31.7 25.7 1.0 14 15.2 N 22 37 12 20 1012.9 1012.3 0.0
22/12:00pm 29.7 23.3 1.2 16 13.9 NNE 24 39 13 21 1013.2 1012.6 0.0
22/11:30am 28.5 22.8 2.7 19 12.9 NNE 22 35 12 19 1014.0 1013.4 0.0
22/11:00am 27.1 21.8 2.9 21 12.0 N 20 35 11 19 1014.5 1013.9 0.0
22/10:30am 25.9 20.6 3.2 23 11.2 NNE 20 35 11 19 1015.1 1014.5 0.0
22/10:00am 22.9 17.5 4.4 30 9.2 NNE 22 32 12 17 1015.3 1014.7 0.0
22/09:30am 21.3 16.5 4.4 33 8.3 NE 19 30 10 16 1015.3 1014.7 0.0
22/09:00am 19.7 14.8 4.2 36 7.5 NE 19 30 10 16 1015.1 1014.5 0.0
22/08:30am 19.2 14.7 4.2 37 7.2 NE 17 28 9 15 1015.2 1014.6 0.0
22/08:00am 17.3 13.2 4.6 43 6.1 NE 15 20 8 11 1015.1 1014.5 0.0
22/07:30am 16.2 12.5 4.6 46 5.5 NE 13 19 7 10 1015.2 1014.6 0.0
22/07:00am 16.1 12.0 4.2 45 5.6 NE 15 22 8 12 1014.9 1014.3 0.0
22/06:30am 16.3 12.6 4.4 45 5.6 NE 13 20 7 11 1014.5 1013.9 0.0
22/06:00am 16.0 12.2 4.1 45 5.6 NE 13 17 7 9 1014.3 1013.7 0.0
22/05:30am 15.6 12.6 4.3 47 5.3 NE 9 13 5 7 1014.4 1013.8 0.0
22/05:00am 15.9 12.9 4.3 46 5.4 NE 9 13 5 7 1014.6 1014.0 0.0
22/04:30am 16.8 13.4 4.2 43 5.9 NE 11 15 6 8 1014.6 1014.0 0.0
22/04:00am 16.9 13.6 4.6 44 5.9 ENE 11 17 6 9 1014.7 1014.1 0.0
22/03:30am 16.6 13.6 4.3 44 5.8 NE 9 13 5 7 1015.1 1014.5 0.0
22/03:00am 16.5 13.5 4.2 44 5.8 ENE 9 11 5 6 1015.6 1015.0 0.0
22/02:30am 16.6 14.0 4.0 43 5.9 NE 7 9 4 5 1016.0 1015.5 0.0
22/02:00am 17.3 14.3 3.9 41 6.3 NE 9 13 5 7 1016.2 1015.7 0.0
22/01:30am 17.2 14.2 4.2 42 6.2 NE 9 13 5 7 1016.4 1015.9 0.0
22/01:00am 13.1 10.6 4.8 57 3.8 NE 7 9 4 5 1016.6 1016.1 0.0
22/12:30am 13.2 10.8 4.4 55 4.1 ENE 6 7 3 4 1016.9 1016.4 0.0
22/12:00am 14.1 11.7 4.1 51 4.6 NE 6 7 3 4 1017.1 1016.6 0.0
 
Date/Time
EDT
Temp
°C
App
Temp
°C
Dew
Point
°C
Rel
Hum
%
Delta-T
°C
Wind Press
QNH
hPa
Press
MSL
hPa
Rain since
9am
mm
Dir  Spd
km/h
Gust
km/h
Spd
kts
Gust
kts
21/11:30pm 16.1 13.5 4.2 45 5.6 NE 7 9 4 5 1017.3 1016.8 0.0
21/11:00pm 17.5 14.8 3.8 40 6.4 NE 7 7 4 4 1017.5 1017.0 0.0
21/10:30pm 19.3 16.6 3.5 35 7.5 NE 7 9 4 5 1017.6 1017.1 0.0
21/10:00pm 20.0 17.3 3.7 34 7.8 NE 7 9 4 5 1017.2 1016.7 0.0
21/09:30pm 19.9 17.2 3.6 34 7.8 NE 7 9 4 5 1017.1 1016.6 0.0
21/09:00pm 20.7 18.1 3.4 32 8.3 NE 6 7 3 4 1017.0 1016.5 0.0
21/08:30pm 22.8 20.0 3.4 28 9.4 NE 7 9 4 5 1016.8 1016.3 0.0
21/08:00pm 24.4 21.2 3.1 25 10.4 NE 9 15 5 8 1016.6 1016.1 0.0
21/07:30pm 25.3 22.6 2.7 23 11.0 NNE 6 11 3 6 1016.6 1016.1 0.0
21/07:00pm 26.1 23.7 2.1 21 11.6 SE 4 7 2 4 1016.4 1015.9 0.0
21/06:30pm 25.8 22.4 1.8 21 11.6 N 9 17 5 9 1016.7 1016.2 0.0
21/06:00pm 26.5 23.6 2.4 21 11.8 N 7 13 4 7 1016.8 1016.3 0.0
21/05:30pm 25.5 22.4 1.6 21 11.4 SE 7 11 4 6 1017.0 1016.5 0.0
21/05:00pm 26.3 23.5 2.9 22 11.5 E 7 17 4 9 1017.0 1016.5 0.0
21/04:30pm 26.1 22.6 3.4 23 11.3 NNW 11 19 6 10 1017.4 1016.9 0.0
21/04:00pm 25.5 22.3 2.9 23 11.1 N 9 17 5 9 1017.8 1017.3 0.0
21/03:30pm 24.7 21.6 3.4 25 10.5 NE 9 13 5 7 1018.1 1017.6 0.0
21/03:00pm 25.2 21.3 3.2 24 10.8 NNE 13 20 7 11 1018.9 1018.3 0.0
21/02:30pm 24.6 21.7 4.4 27 10.1 N 9 17 5 9 1019.3 1018.7 0.0
21/02:00pm 23.8 21.2 4.2 28 9.7 N 7 13 4 7 1019.7 1019.1 0.0
21/01:30pm 22.8 19.8 4.3 30 9.1 ENE 9 19 5 10 1019.9 1019.3 0.0
21/01:00pm 22.8 19.8 4.3 30 9.1 N 9 13 5 7 1020.3 1019.7 0.0
21/12:30pm 22.4 19.9 4.9 32 8.7 NE 7 13 4 7 1020.9 1020.3 0.0
21/12:00pm 21.4 18.2 4.9 34 8.1 NE 11 13 6 7 1021.3 1020.7 0.0
21/11:30am 21.3 19.5 5.2 35 8.0 NE 4 11 2 6 1021.5 1020.9 0.0
21/11:00am 19.5 16.6 4.4 37 7.3 ENE 9 17 5 9 1021.6 1021.0 0.0
21/10:30am 19.9 17.1 5.2 38 7.2 ESE 9 17 5 9 1021.7 1021.1 0.0
21/10:00am 17.9 15.3 6.1 46 5.8 E 9 15 5 8 1021.7 1021.1 0.0
21/09:30am 16.9 14.4 6.4 50 5.2 E 9 13 5 7 1021.5 1020.9 0.0
21/09:00am 14.9 12.2 7.5 61 3.7 ESE 11 15 6 8 1021.3 1020.7 0.0
21/08:30am 12.1 10.2 7.6 74 2.2 SE 7 11 4 6 1021.1 1020.5 0.0
21/08:00am 10.0 9.6 8.3 89 0.8 CALM 0 0 0 0 1020.6 1020.0 0.0
21/07:30am 7.0 6.0 5.5 90 0.7 CALM 0 0 0 0 1020.4 1019.8 0.0
21/07:00am 6.4 4.4 4.6 88 0.8 SE 4 6 2 3 1020.2 1019.6 0.0
21/06:30am 7.2 6.1 5.0 86 1.0 CALM 0 0 0 0 1019.9 1019.3 0.0
21/06:00am 7.5 6.0 5.1 85 1.1 SE 2 7 1 4 1019.3 1018.7 0.0
21/05:30am 7.6 6.1 5.1 84 1.1 SE 2 6 1 3 1019.3 1018.7 0.0
21/05:00am 8.0 6.1 5.1 82 1.3 SE 4 6 2 3 1019.1 1018.5 0.0
21/04:30am 9.1 7.0 5.8 80 1.5 SE 6 7 3 4 1019.1 1018.5 0.0
21/04:00am 8.0 5.7 4.8 80 1.4 SE 6 6 3 3 1019.1 1018.5 0.0
21/03:30am 8.2 5.9 4.8 79 1.5 SSE 6 7 3 4 1019.1 1018.5 0.0
21/03:00am 8.9 6.4 4.7 75 1.9 SSE 7 9 4 5 1018.8 1018.2 0.0
21/02:30am 9.7 7.3 5.3 74 2.0 SSE 7 9 4 5 1018.7 1018.1 0.0
21/02:00am 10.1 7.7 5.3 72 2.2 SSE 7 11 4 6 1018.9 1018.3 0.0
21/01:30am 10.8 8.0 5.3 69 2.5 SSE 9 11 5 6 1019.1 1018.5 0.0
21/01:00am 11.3 8.9 5.4 67 2.7 SE 7 11 4 6 1019.2 1018.6 0.0
21/12:30am 12.0 9.3 5.6 65 3.0 SSE 9 11 5 6 1019.0 1018.4 0.0
21/12:00am 12.6 9.9 5.8 63 3.2 SSE 9 17 5 9 1018.8 1018.2 0.0
 
Date/Time
EDT
Temp
°C
App
Temp
°C
Dew
Point
°C
Rel
Hum
%
Delta-T
°C
Wind Press
QNH
hPa
Press
MSL
hPa
Rain since
9am
mm
Dir  Spd
km/h
Gust
km/h
Spd
kts
Gust
kts
20/11:30pm 12.2 9.5 5.8 65 3.0 SSE 9 13 5 7 1018.7 1018.1 0.0
20/11:00pm 11.4 9.0 4.4 62 3.2 SSE 6 9 3 5 1018.7 1018.1 0.0

Other Formats:

Comma delimited format used in spreadsheet applications
http://www.bom.gov.au/fwo/IDV60801/IDV60801.94839.axf

JavaScript Object Notation format (JSON) in row-major order
http://www.bom.gov.au/fwo/IDV60801/IDV60801.94839.json